Time;durP1;ratioP1;P1;durP2;ratioP2;P2;SDS_P1;SDS_P2;PMS_P1;PMS_P2;Temp;Humidity;BMP_temperature;BMP_pressure;BME280_temperature;BME280_humidity;BME280_pressure;Samples;Min_cycle;Max_cycle;Signal;HPM_P1;HPM_P2
2022/06/29 00:00:31;;;;;;;;;6.75;4.25;;;;;25.51;34.51;100924.25;2083867;28;47537;-61
2022/06/29 00:01:32;;;;;;;;;3.00;2.00;;;;;25.51;34.96;100924.25;2086350;28;46995;-62
2022/06/29 00:02:33;;;;;;;;;5.00;4.50;;;;;25.51;35.36;100921.53;2086983;28;47694;-63
2022/06/29 00:03:33;;;;;;;;;5.00;5.00;;;;;25.50;35.42;100923.38;2086923;28;47905;-62
2022/06/29 00:04:33;;;;;;;;;3.75;3.75;;;;;25.50;35.53;100930.66;2081565;28;46413;-60
2022/06/29 00:05:34;;;;;;;;;3.25;2.50;;;;;25.49;35.13;100926.22;2079988;28;47258;-61
2022/06/29 00:06:35;;;;;;;;;4.00;3.80;;;;;25.49;35.16;100929.81;2086600;28;47144;-62
2022/06/29 00:07:35;;;;;;;;;4.50;4.50;;;;;25.48;35.46;100929.94;2077636;28;47394;-58
2022/06/29 00:08:36;;;;;;;;;3.00;3.00;;;;;25.47;35.29;100925.50;2078139;28;47452;-62
2022/06/29 00:09:36;;;;;;;;;3.00;3.00;;;;;25.45;35.83;100925.63;2087625;28;47850;-64
2022/06/29 00:10:38;;;;;;;;;4.00;4.00;;;;;25.46;35.52;100926.47;2087778;28;47645;-62
2022/06/29 00:11:38;;;;;;;;;3.80;3.80;;;;;25.45;35.51;100932.91;2087615;28;47604;-62
2022/06/29 00:12:40;;;;;;;;;3.25;2.25;;;;;25.45;35.76;100930.19;2081871;28;47567;-61
2022/06/29 00:13:40;;;;;;;;;1.40;0.40;;;;;25.45;36.04;100930.19;2079721;28;47728;-62
2022/06/29 00:14:43;;;;;;;;;4.00;2.75;;;;;25.43;35.66;100921.31;2077962;28;47372;-62
2022/06/29 00:15:44;;;;;;;;;3.00;2.40;;;;;25.42;36.02;100927.72;2081676;28;47491;-61
2022/06/29 00:16:44;;;;;;;;;4.75;4.25;;;;;25.39;35.58;100926.09;2088220;28;47734;-62
2022/06/29 00:17:45;;;;;;;;;2.75;2.75;;;;;25.39;35.71;100928.81;2087698;28;47967;-59
2022/06/29 00:18:45;;;;;;;;;3.00;2.75;;;;;25.39;36.46;100927.94;2087712;28;47622;-63
2022/06/29 00:19:45;;;;;;;;;3.75;3.75;;;;;25.39;36.30;100927.94;2086913;28;47326;-62
2022/06/29 00:20:46;;;;;;;;;5.00;4.50;;;;;25.37;36.24;100913.63;2086851;28;47506;-62
2022/06/29 00:21:46;;;;;;;;;5.25;5.25;;;;;25.34;36.42;100922.91;2077570;28;47844;-59
2022/06/29 00:22:47;;;;;;;;;5.25;4.00;;;;;25.34;36.73;100927.47;2078256;28;48125;-61
2022/06/29 00:23:48;;;;;;;;;3.40;3.00;;;;;25.32;36.30;100924.88;2087131;28;46544;-61
2022/06/29 00:24:48;;;;;;;;;2.75;2.75;;;;;25.32;36.31;100926.72;2087855;28;47936;-62
2022/06/29 00:25:48;;;;;;;;;3.00;3.00;;;;;25.30;36.37;100931.44;2081605;28;47407;-62
2022/06/29 00:26:50;;;;;;;;;3.75;2.25;;;;;25.29;36.66;100930.56;2080590;28;47631;-62
2022/06/29 00:27:50;;;;;;;;;3.80;3.80;;;;;25.28;36.42;100930.66;2082294;28;47469;-62
2022/06/29 00:28:51;;;;;;;;;3.00;3.00;;;;;25.28;36.84;100928.81;2082742;28;47528;-62
2022/06/29 00:29:51;;;;;;;;;3.25;3.25;;;;;25.26;36.86;100928.06;2082352;28;47633;-62
2022/06/29 00:30:51;;;;;;;;;4.00;4.00;;;;;25.26;37.07;100924.50;2085326;28;47684;-62
2022/06/29 00:31:52;;;;;;;;;4.00;2.33;;;;;25.25;36.67;100926.34;2084459;28;47463;-61
2022/06/29 00:32:52;;;;;;;;;4.75;3.75;;;;;25.24;36.76;100921.91;2082981;28;47445;-59
2022/06/29 00:33:53;;;;;;;;;4.50;4.00;;;;;25.23;36.62;100928.31;2083221;28;48143;-62
2022/06/29 00:34:53;;;;;;;;;4.00;4.00;;;;;25.22;37.33;100923.88;2084087;28;46775;-62
2022/06/29 00:35:53;;;;;;;;;12.75;12.75;;;;;25.19;37.34;100922.28;2084262;28;47500;-61
2022/06/29 00:36:54;;;;;;;;;6.67;3.67;;;;;25.19;37.20;100921.41;2085432;28;47428;-62
2022/06/29 00:37:54;;;;;;;;;4.67;4.67;;;;;25.18;37.27;100925.13;2087246;28;47134;-61
2022/06/29 00:38:54;;;;;;;;;2.33;2.33;;;;;25.17;37.06;100923.38;2084364;28;47414;-62
2022/06/29 00:39:55;;;;;;;;;2.33;2.33;;;;;25.14;37.40;100920.88;2084092;28;47853;-59
2022/06/29 00:40:55;;;;;;;;;5.33;5.00;;;;;25.13;37.01;100919.16;2085136;28;47303;-57
2022/06/29 00:41:56;;;;;;;;;3.00;3.00;;;;;25.11;37.32;100916.56;2085307;28;47424;-61
2022/06/29 00:42:56;;;;;;;;;2.00;2.00;;;;;25.10;37.52;100919.41;2086842;28;47532;-58
2022/06/29 00:43:57;;;;;;;;;2.00;2.00;;;;;25.08;37.53;100910.53;2085018;28;47312;-61
2022/06/29 00:44:57;;;;;;;;;2.00;2.00;;;;;25.06;37.14;100916.09;2084982;28;47091;-62
2022/06/29 00:45:58;;;;;;;;;3.00;1.00;;;;;25.05;37.53;100917.06;2085779;28;47682;-61
2022/06/29 00:47:02;;;;;;;;;2.00;2.00;;;;;25.03;37.43;100910.91;2085163;28;47529;-59
2022/06/29 00:48:03;;;;;;;;;2.00;2.00;;;;;25.02;37.76;100911.88;2082853;28;47568;-60
2022/06/29 00:49:03;;;;;;;;;3.50;3.00;;;;;25.01;37.72;100909.28;2081126;28;47296;-61
2022/06/29 00:50:05;;;;;;;;;2.67;2.67;;;;;25.00;37.74;100912.94;2080707;28;47216;-58
2022/06/29 00:51:10;;;;;;;;;3.25;3.25;;;;;24.98;37.79;100904.91;2085049;28;48229;-59
2022/06/29 00:52:13;;;;;;;;;2.20;2.20;;;;;24.96;37.99;100909.63;2085690;28;48042;-56
2022/06/29 00:53:16;;;;;;;;;1.25;1.25;;;;;24.94;37.81;100907.03;2081004;28;47398;-61
2022/06/29 00:54:23;;;;;;;;;2.00;2.00;;;;;24.95;37.84;100907.88;2085570;28;47756;-62
2022/06/29 00:55:27;;;;;;;;;1.25;1.25;;;;;24.94;37.94;100906.16;2082222;28;47501;-61
2022/06/29 00:56:28;;;;;;;;;3.00;2.00;;;;;24.92;38.18;100905.41;2082457;28;47747;-61
2022/06/29 00:57:30;;;;;;;;;2.00;2.00;;;;;24.91;38.20;100909.13;2083239;28;47827;-60
2022/06/29 00:58:31;;;;;;;;;1.00;1.00;;;;;24.90;38.43;100899.22;2081845;28;47614;-62
2022/06/29 00:59:36;;;;;;;;;1.75;1.75;;;;;24.89;38.07;100902.91;2085589;28;47567;-61
2022/06/29 01:00:37;;;;;;;;;1.00;1.00;;;;;24.89;38.11;100903.78;2084551;28;47730;-62
2022/06/29 01:01:38;;;;;;;;;3.00;1.00;;;;;24.88;38.39;100907.50;2081533;28;47015;-61
2022/06/29 01:02:39;;;;;;;;;3.75;3.75;;;;;24.87;38.57;100905.75;2081575;28;46971;-62
2022/06/29 01:03:39;;;;;;;;;1.00;1.00;;;;;24.86;38.32;100904.03;2083329;28;47167;-62
2022/06/29 01:04:41;;;;;;;;;1.00;1.00;;;;;24.86;38.18;100903.16;2086860;28;47905;-62
2022/06/29 01:05:41;;;;;;;;;1.25;1.25;;;;;24.84;38.18;100903.28;2085383;28;46616;-62
2022/06/29 01:06:42;;;;;;;;;2.33;2.33;;;;;24.83;38.33;100907.00;2085324;28;47141;-58
2022/06/29 01:07:43;;;;;;;;;0.33;0.33;;;;;24.80;38.21;100899.09;2084005;28;47148;-62
2022/06/29 01:08:44;;;;;;;;;1.50;1.50;;;;;24.79;38.23;100905.53;2085529;28;47526;-62
2022/06/29 01:09:45;;;;;;;;;1.00;1.00;;;;;24.77;38.46;100909.31;2081721;28;47787;-62
2022/06/29 01:10:45;;;;;;;;;1.75;1.75;;;;;24.76;38.40;100910.31;2081447;28;45139;-61
2022/06/29 01:11:49;;;;;;;;;3.00;1.50;;;;;24.75;38.31;100904.00;2088047;28;47965;-60
2022/06/29 01:12:51;;;;;;;;;1.20;1.20;;;;;24.74;38.59;100905.00;2083366;28;47884;-62
2022/06/29 01:13:52;;;;;;;;;1.00;1.00;;;;;24.74;38.55;100909.56;2084964;28;47193;-62
2022/06/29 01:14:53;;;;;;;;;2.25;2.00;;;;;24.74;38.42;100909.56;2085919;28;48171;-62
2022/06/29 01:15:54;;;;;;;;;2.00;2.00;;;;;24.73;38.69;100908.69;2081624;28;47859;-62
2022/06/29 01:16:55;;;;;;;;;3.00;3.00;;;;;24.72;38.48;100908.81;2083543;28;47755;-61
2022/06/29 01:17:56;;;;;;;;;3.80;2.80;;;;;24.70;38.83;100908.94;2085021;28;45099;-61
2022/06/29 01:18:56;;;;;;;;;1.00;1.00;;;;;24.70;38.62;100908.94;2081565;28;47570;-61
2022/06/29 01:19:56;;;;;;;;;2.00;2.00;;;;;24.70;38.60;100910.78;2086347;28;47119;-62
2022/06/29 01:21:06;;;;;;;;;2.50;1.75;;;;;24.67;38.62;100903.75;2087579;28;47264;-62
2022/06/29 01:22:14;;;;;;;;;2.20;2.20;;;;;24.66;38.50;100904.75;2083945;28;47583;-62
2022/06/29 01:23:15;;;;;;;;;1.75;1.75;;;;;24.65;38.78;100903.88;2080871;28;47757;-61
2022/06/29 01:24:15;;;;;;;;;2.00;2.00;;;;;24.64;38.82;100903.97;2087538;28;47126;-62
2022/06/29 01:25:16;;;;;;;;;0.00;0.00;;;;;24.63;38.71;100902.25;2082957;28;47161;-63
2022/06/29 01:26:16;;;;;;;;;1.33;1.33;;;;;24.62;38.63;100898.66;2089802;28;47374;-60
2022/06/29 01:27:19;;;;;;;;;2.00;2.00;;;;;24.62;39.01;100909.53;2086909;28;47841;-61
2022/06/29 01:28:19;;;;;;;;;2.00;2.00;;;;;24.61;38.83;100899.66;2083069;28;47453;-61
2022/06/29 01:29:20;;;;;;;;;1.00;0.00;;;;;24.61;38.95;100904.22;2084304;28;47440;-61
2022/06/29 01:30:20;;;;;;;;;1.67;1.00;;;;;24.60;39.02;100894.34;2085152;28;48016;-62
2022/06/29 01:31:21;;;;;;;;;3.00;3.00;;;;;24.60;38.66;100905.19;2081769;28;48133;-61
2022/06/29 01:32:21;;;;;;;;;2.00;2.00;;;;;24.57;39.43;100903.59;2087043;28;47396;-60
2022/06/29 01:33:21;;;;;;;;;1.00;1.00;;;;;24.57;38.83;100903.59;2089036;28;47238;-61
2022/06/29 01:34:27;;;;;;;;;1.33;1.33;;;;;24.55;39.04;100911.00;2089143;28;47888;-61
2022/06/29 01:35:27;;;;;;;;;2.50;1.75;;;;;24.53;39.30;100904.84;2082958;28;47607;-61
2022/06/29 01:36:28;;;;;;;;;0.00;0.00;;;;;24.50;38.87;100905.03;2080030;28;48420;-62
2022/06/29 01:37:28;;;;;;;;;3.00;1.33;;;;;24.50;39.21;100907.75;2082026;28;47605;-60
2022/06/29 01:38:28;;;;;;;;;0.33;0.33;;;;;24.48;39.26;100907.00;2083210;28;47564;-62
2022/06/29 01:39:30;;;;;;;;;1.00;1.00;;;;;24.48;39.21;100903.44;2080811;28;47460;-62
2022/06/29 01:40:30;;;;;;;;;1.75;1.75;;;;;24.47;39.17;100908.00;2086324;28;47812;-62
2022/06/29 01:41:31;;;;;;;;;1.67;1.67;;;;;24.45;39.11;100904.53;2084986;28;47435;-62
2022/06/29 01:42:32;;;;;;;;;2.75;2.00;;;;;24.45;39.09;100903.69;2103541;27;47639;-56
2022/06/29 01:43:32;;;;;;;;;1.00;1.00;;;;;24.43;39.25;100905.66;2104153;27;47875;-63
2022/06/29 01:44:34;;;;;;;;;3.33;2.00;;;;;24.42;39.44;100910.22;2084274;28;47942;-63
2022/06/29 01:45:34;;;;;;;;;1.50;1.50;;;;;24.42;39.30;100904.78;2085710;28;47225;-60
2022/06/29 01:46:35;;;;;;;;;3.33;2.00;;;;;24.41;39.02;100904.91;2085519;28;47887;-58
2022/06/29 01:47:36;;;;;;;;;0.33;0.33;;;;;24.40;39.23;100906.75;2084613;28;47730;-61
2022/06/29 01:48:36;;;;;;;;;1.00;1.00;;;;;24.38;39.24;100895.13;2084272;28;47662;-60
2022/06/29 01:49:36;;;;;;;;;0.33;0.33;;;;;24.37;39.20;100896.13;2081232;28;46723;-61
2022/06/29 01:50:37;;;;;;;;;3.00;2.33;;;;;24.37;39.05;100896.13;2082159;28;47712;-59
2022/06/29 01:51:38;;;;;;;;;0.00;0.00;;;;;24.36;39.28;100897.09;2085411;28;47569;-61
2022/06/29 01:52:39;;;;;;;;;0.50;0.50;;;;;24.35;39.52;100898.94;2080020;28;47407;-61
2022/06/29 01:53:39;;;;;;;;;1.67;1.67;;;;;24.35;39.22;100900.78;2085836;28;47273;-61
2022/06/29 01:54:39;;;;;;;;;1.67;1.67;;;;;24.34;39.06;100896.34;2085560;28;47555;-61
2022/06/29 01:55:40;;;;;;;;;0.67;0.67;;;;;24.34;39.67;100907.22;2082878;28;47457;-61
2022/06/29 01:56:41;;;;;;;;;1.00;1.00;;;;;24.33;39.64;100902.78;2087415;28;47999;-60
2022/06/29 01:57:41;;;;;;;;;1.67;1.67;;;;;24.31;39.23;100897.47;2087209;28;47558;-61
2022/06/29 01:58:41;;;;;;;;;0.33;0.33;;;;;24.29;39.57;100904.81;2082389;28;47547;-58
2022/06/29 01:59:42;;;;;;;;;1.00;1.00;;;;;24.28;39.40;100905.81;2089534;28;47672;-61
2022/06/29 02:00:43;;;;;;;;;0.00;0.00;;;;;24.27;39.54;100895.09;2091675;28;47673;-61
2022/06/29 02:01:45;;;;;;;;;2.00;1.00;;;;;24.26;39.48;100893.31;2088302;28;47473;-60
2022/06/29 02:02:46;;;;;;;;;2.00;2.00;;;;;24.24;39.49;100898.88;2088606;28;47562;-62
2022/06/29 02:03:46;;;;;;;;;2.00;2.00;;;;;24.23;39.47;100898.97;2088413;28;47514;-62
2022/06/29 02:04:47;;;;;;;;;0.00;0.00;;;;;24.22;39.50;100897.25;2088529;28;47641;-62
2022/06/29 02:05:47;;;;;;;;;1.00;1.00;;;;;24.20;39.96;100891.94;2087329;28;45963;-62
2022/06/29 02:06:48;;;;;;;;;1.00;1.00;;;;;24.20;39.78;100893.81;2088592;28;47619;-62
2022/06/29 02:07:48;;;;;;;;;2.00;2.00;;;;;24.20;39.92;100891.09;2088196;28;47609;-61
2022/06/29 02:08:49;;;;;;;;;2.67;2.67;;;;;24.19;39.72;100897.50;2087755;28;47995;-61
2022/06/29 02:09:49;;;;;;;;;3.00;1.50;;;;;24.18;40.07;100896.63;2087389;28;47735;-60
2022/06/29 02:10:50;;;;;;;;;2.00;2.00;;;;;24.18;39.92;100898.47;2088671;28;47573;-60
2022/06/29 02:11:50;;;;;;;;;3.00;3.00;;;;;24.18;39.97;100895.78;2088379;28;47824;-62
2022/06/29 02:12:51;;;;;;;;;1.00;1.00;;;;;24.18;39.79;100898.47;2088140;28;47727;-61
2022/06/29 02:13:51;;;;;;;;;1.50;1.50;;;;;24.16;39.85;100901.31;2088325;28;45841;-60
2022/06/29 02:14:52;;;;;;;;;0.50;0.50;;;;;24.16;39.94;100901.31;2079950;28;47503;-61
2022/06/29 02:15:52;;;;;;;;;1.00;0.00;;;;;24.16;39.83;100898.59;2083781;28;47413;-61
2022/06/29 02:16:53;;;;;;;;;1.00;1.00;;;;;24.16;39.68;100901.31;2095294;28;47670;-62
2022/06/29 02:17:53;;;;;;;;;1.00;1.00;;;;;24.15;39.87;100905.00;2095327;28;47913;-61
2022/06/29 02:18:53;;;;;;;;;2.00;2.00;;;;;24.15;40.20;100906.84;2088259;28;47748;-62
2022/06/29 02:19:54;;;;;;;;;0.00;0.00;;;;;24.14;39.83;100900.56;2088220;28;47658;-61
2022/06/29 02:20:54;;;;;;;;;2.25;2.25;;;;;24.14;40.10;100902.38;2088374;28;47844;-61
2022/06/29 02:21:55;;;;;;;;;1.50;1.00;;;;;24.13;39.90;100897.94;2087786;28;47584;-61
2022/06/29 02:22:55;;;;;;;;;2.00;2.00;;;;;24.12;40.11;100901.63;2084606;28;47469;-62
2022/06/29 02:23:55;;;;;;;;;0.75;0.75;;;;;24.11;40.01;100908.91;2087800;28;47936;-62
2022/06/29 02:24:56;;;;;;;;;1.75;1.75;;;;;24.09;39.88;100905.44;2088087;28;47897;-61
2022/06/29 02:25:56;;;;;;;;;1.50;1.50;;;;;24.10;39.71;100898.19;2088390;28;47710;-61
2022/06/29 02:26:57;;;;;;;;;1.75;1.75;;;;;24.09;40.15;100897.31;2088544;28;47096;-60
2022/06/29 02:27:57;;;;;;;;;1.00;1.00;;;;;24.08;40.08;100895.59;2088055;28;47582;-60
2022/06/29 02:28:57;;;;;;;;;2.25;1.75;;;;;24.07;40.06;100892.03;2095071;28;47717;-61
2022/06/29 02:29:58;;;;;;;;;1.75;0.75;;;;;24.08;40.00;100895.59;2095173;28;47221;-62
2022/06/29 02:35:03;;;;;;;;;1.60;1.60;;;;;24.01;40.17;100895.19;2082656;28;47637;-61
2022/06/29 02:36:04;;;;;;;;;1.00;1.00;;;;;24.00;40.34;100893.44;2078705;28;47173;-62
2022/06/29 02:37:05;;;;;;;;;1.00;1.00;;;;;23.99;40.29;100893.56;2086605;28;47354;-62
2022/06/29 02:38:05;;;;;;;;;0.75;0.75;;;;;23.98;40.29;100889.97;2087455;28;47235;-62
2022/06/29 02:39:05;;;;;;;;;1.00;1.00;;;;;23.99;40.02;100896.28;2087323;28;47276;-62
2022/06/29 02:40:06;;;;;;;;;0.75;0.75;;;;;24.00;40.23;100892.56;2081861;28;47352;-62
2022/06/29 02:41:07;;;;;;;;;2.75;2.75;;;;;23.98;40.13;100894.53;2079949;28;47593;-62
2022/06/29 02:42:07;;;;;;;;;3.67;2.00;;;;;23.98;40.34;100891.84;2079439;28;47420;-58
2022/06/29 02:43:08;;;;;;;;;2.50;1.25;;;;;23.98;40.16;100897.25;2078675;28;47969;-61
2022/06/29 02:44:08;;;;;;;;;2.00;2.00;;;;;23.96;40.37;100889.25;2079123;28;47475;-60
2022/06/29 02:45:09;;;;;;;;;3.00;3.00;;;;;23.96;40.52;100885.66;2078426;28;47648;-63
2022/06/29 02:46:09;;;;;;;;;2.00;2.00;;;;;23.95;40.31;100894.78;2078738;28;45827;-62
2022/06/29 02:47:10;;;;;;;;;3.00;3.00;;;;;23.94;40.52;100893.91;2076525;28;47880;-60
2022/06/29 02:48:10;;;;;;;;;3.00;2.25;;;;;23.94;40.48;100887.63;2079273;28;47889;-59
2022/06/29 02:49:11;;;;;;;;;2.50;2.25;;;;;23.93;40.35;100888.63;2078361;28;47681;-61
2022/06/29 02:50:11;;;;;;;;;2.00;2.00;;;;;23.92;40.36;100889.59;2078435;28;48049;-62
2022/06/29 02:51:11;;;;;;;;;2.25;2.00;;;;;23.91;40.49;100887.88;2079037;28;47529;-58
2022/06/29 02:52:12;;;;;;;;;2.50;2.50;;;;;23.90;40.34;100887.00;2078872;28;47134;-62
2022/06/29 02:53:12;;;;;;;;;3.25;3.25;;;;;23.89;40.48;100882.56;2087045;28;47564;-60
2022/06/29 02:54:13;;;;;;;;;3.50;3.50;;;;;23.89;40.36;100893.41;2084553;28;47429;-62
2022/06/29 02:55:13;;;;;;;;;2.00;2.00;;;;;23.89;40.35;100879.00;2079019;28;47512;-62
2022/06/29 02:56:13;;;;;;;;;2.00;1.00;;;;;23.88;40.36;100888.94;2077101;28;47183;-61
2022/06/29 02:57:14;;;;;;;;;2.00;2.00;;;;;23.88;40.52;100882.66;2079730;28;47598;-61
2022/06/29 02:58:14;;;;;;;;;2.00;1.00;;;;;23.86;40.45;100881.91;2087070;28;46812;-61
2022/06/29 02:59:15;;;;;;;;;5.25;2.25;;;;;23.86;40.45;100884.63;2085119;28;47497;-61
2022/06/29 03:00:15;;;;;;;;;1.75;1.75;;;;;23.85;40.64;100880.19;2085732;28;47824;-63
2022/06/29 03:01:16;;;;;;;;;2.75;2.75;;;;;23.84;40.23;100871.19;2078682;28;47833;-60
2022/06/29 03:02:16;;;;;;;;;3.00;3.00;;;;;23.84;40.37;100882.03;2081559;28;47494;-62
2022/06/29 03:03:16;;;;;;;;;3.25;3.25;;;;;23.83;40.40;100874.00;2075995;28;47394;-62
2022/06/29 03:04:17;;;;;;;;;3.00;3.00;;;;;23.83;40.35;100876.72;2078121;28;47365;-62
2022/06/29 03:05:17;;;;;;;;;2.00;2.00;;;;;23.81;40.47;100879.56;2080448;28;47704;-62
2022/06/29 03:06:18;;;;;;;;;3.00;2.00;;;;;23.81;40.27;100876.84;2086940;28;47281;-63
2022/06/29 03:07:18;;;;;;;;;2.75;2.75;;;;;23.79;40.45;100867.97;2078648;28;45045;-61
2022/06/29 03:08:19;;;;;;;;;3.00;3.00;;;;;23.78;40.29;100871.66;2078618;28;47470;-62
2022/06/29 03:09:19;;;;;;;;;2.50;2.50;;;;;23.76;40.47;100869.06;2079255;28;47492;-61
2022/06/29 03:10:19;;;;;;;;;5.25;3.00;;;;;23.77;40.41;100868.09;2078397;28;47354;-61
2022/06/29 03:11:20;;;;;;;;;3.25;3.25;;;;;23.75;40.43;100871.84;2079474;28;47582;-62
2022/06/29 03:12:20;;;;;;;;;2.00;2.00;;;;;23.73;40.51;100863.84;2085706;28;47958;-61
2022/06/29 03:13:21;;;;;;;;;3.25;3.25;;;;;23.72;40.54;100874.81;2087825;28;47518;-61
2022/06/29 03:14:21;;;;;;;;;3.00;3.00;;;;;23.69;40.47;100877.75;2087313;28;47811;-61
2022/06/29 03:15:25;;;;;;;;;3.75;3.75;;;;;23.66;40.70;100877.97;2083178;28;47447;-62
2022/06/29 03:16:25;;;;;;;;;3.00;3.00;;;;;23.64;40.55;100878.09;2079340;28;47765;-58
2022/06/29 03:17:26;;;;;;;;;3.50;3.50;;;;;23.61;40.42;100882.84;2087899;28;47625;-62
2022/06/29 03:18:26;;;;;;;;;2.50;2.50;;;;;23.58;40.68;100880.38;2087785;28;47598;-62
2022/06/29 03:19:27;;;;;;;;;3.50;3.00;;;;;23.56;40.69;100885.00;2087829;28;47885;-61
2022/06/29 03:20:28;;;;;;;;;5.50;4.00;;;;;23.54;40.42;100884.28;2087481;28;47964;-60
2022/06/29 03:21:28;;;;;;;;;0.00;0.00;;;;;23.50;40.65;100889.03;2086175;28;47829;-62
2022/06/29 03:22:28;;;;;;;;;1.75;1.25;;;;;23.47;40.82;100876.56;2099845;28;48266;-62
2022/06/29 03:23:29;;;;;;;;;3.25;3.25;;;;;23.46;40.96;100882.09;2103344;28;47488;-63
2022/06/29 03:24:29;;;;;;;;;3.25;2.25;;;;;23.43;41.09;100880.50;2085972;28;47787;-61
2022/06/29 03:25:30;;;;;;;;;4.75;4.75;;;;;23.40;40.95;100877.16;2086688;28;47617;-61
2022/06/29 03:26:31;;;;;;;;;4.25;4.25;;;;;23.36;41.01;100878.31;2078793;28;47776;-60
2022/06/29 03:27:32;;;;;;;;;3.00;3.00;;;;;23.32;41.15;100871.41;2079945;28;47329;-63
2022/06/29 03:28:32;;;;;;;;;3.80;3.80;;;;;23.28;41.17;100883.44;2079592;28;47847;-63
2022/06/29 03:29:33;;;;;;;;;3.25;3.25;;;;;23.23;41.29;100878.34;2079729;28;47615;-62
2022/06/29 03:30:33;;;;;;;;;5.00;3.00;;;;;23.19;41.18;100880.41;2080484;28;46747;-60
2022/06/29 03:31:33;;;;;;;;;2.25;2.25;;;;;23.17;41.52;100876.09;2079120;28;47432;-60
2022/06/29 03:32:34;;;;;;;;;5.75;4.00;;;;;23.15;41.49;100878.06;2079463;28;47430;-59
2022/06/29 03:33:34;;;;;;;;;2.00;2.00;;;;;23.13;41.05;100875.47;2080253;28;47795;-60
2022/06/29 03:34:34;;;;;;;;;3.25;3.25;;;;;23.10;41.27;100883.78;2079870;28;47375;-60
2022/06/29 03:35:35;;;;;;;;;3.75;3.75;;;;;23.07;41.70;100875.00;2079714;28;47501;-63
2022/06/29 03:36:35;;;;;;;;;3.00;3.00;;;;;23.03;41.52;100874.38;2078125;28;47936;-61
2022/06/29 03:37:36;;;;;;;;;3.50;3.50;;;;;23.00;41.51;100876.44;2092017;28;46485;-60
2022/06/29 03:38:36;;;;;;;;;4.00;3.00;;;;;22.96;42.02;100874.91;2085490;28;47829;-59
2022/06/29 03:39:37;;;;;;;;;2.75;2.00;;;;;22.93;41.51;100869.72;2079437;28;47971;-62
2022/06/29 03:40:37;;;;;;;;;4.00;3.25;;;;;22.89;42.03;100867.25;2079243;28;47890;-61
2022/06/29 03:41:37;;;;;;;;;4.00;4.00;;;;;22.87;41.89;100873.75;2081495;28;47115;-60
2022/06/29 03:42:38;;;;;;;;;0.00;0.00;;;;;22.84;41.77;100866.69;2078462;28;46478;-59
2022/06/29 03:43:38;;;;;;;;;3.25;3.00;;;;;22.85;42.05;100870.25;2084383;28;47744;-61
2022/06/29 03:44:38;;;;;;;;;5.00;5.00;;;;;22.86;42.06;100874.69;2095021;28;46189;-61
2022/06/29 03:45:39;;;;;;;;;4.75;4.75;;;;;22.86;42.06;100871.97;2094678;28;45789;-62
2022/06/29 03:46:39;;;;;;;;;3.75;2.75;;;;;22.88;41.90;100870.06;2081535;28;47802;-61
2022/06/29 03:47:40;;;;;;;;;4.25;4.00;;;;;22.88;42.06;100870.91;2086844;28;47474;-61
2022/06/29 03:48:40;;;;;;;;;3.25;3.25;;;;;22.87;42.26;100869.19;2087665;28;47331;-62
2022/06/29 03:49:41;;;;;;;;;4.00;4.00;;;;;22.87;41.84;100868.31;2087198;28;46425;-63
2022/06/29 03:50:41;;;;;;;;;3.75;3.75;;;;;22.85;42.09;100862.13;2087791;28;47463;-62
2022/06/29 03:51:41;;;;;;;;;4.75;4.00;;;;;22.83;41.93;100872.19;2086415;28;47488;-61
2022/06/29 03:52:42;;;;;;;;;2.25;2.25;;;;;22.80;42.25;100864.28;2086696;28;46391;-62
2022/06/29 03:53:43;;;;;;;;;5.25;4.50;;;;;22.79;42.39;100858.00;2087053;28;47785;-61
2022/06/29 03:54:43;;;;;;;;;5.00;3.25;;;;;22.76;42.25;100860.94;2082207;28;47224;-60
2022/06/29 03:55:43;;;;;;;;;2.50;2.50;;;;;22.74;42.68;100861.97;2086671;28;47879;-62
2022/06/29 03:56:44;;;;;;;;;3.50;3.50;;;;;22.72;42.52;100859.38;2088078;28;47992;-63
2022/06/29 03:57:44;;;;;;;;;3.00;3.00;;;;;22.69;42.81;100862.31;2087333;28;47823;-62
2022/06/29 03:58:44;;;;;;;;;5.00;4.00;;;;;22.67;42.38;100858.00;2090150;28;47588;-62
2022/06/29 03:59:45;;;;;;;;;4.75;4.75;;;;;22.64;42.74;100856.38;2085864;28;47650;-63
2022/06/29 04:00:46;;;;;;;;;3.00;3.00;;;;;22.63;42.30;100861.91;2082844;28;47100;-62
2022/06/29 04:01:46;;;;;;;;;2.50;2.50;;;;;22.60;42.91;100865.66;2085439;28;47587;-59
2022/06/29 04:02:47;;;;;;;;;5.25;4.75;;;;;22.59;42.55;100867.50;2082954;28;47329;-63
2022/06/29 04:03:47;;;;;;;;;4.25;4.25;;;;;22.56;42.54;100865.00;2082896;28;47440;-63
2022/06/29 04:04:48;;;;;;;;;4.25;4.25;;;;;22.56;42.58;100867.72;2084417;28;47591;-60
2022/06/29 04:05:48;;;;;;;;;3.75;3.75;;;;;22.54;42.82;100861.53;2083448;28;46093;-59
2022/06/29 04:06:49;;;;;;;;;4.00;4.00;;;;;22.53;43.09;100864.38;2084034;28;47997;-63
2022/06/29 04:07:49;;;;;;;;;1.75;1.75;;;;;22.52;43.10;100865.34;2083732;28;48040;-61
2022/06/29 04:08:49;;;;;;;;;4.50;3.50;;;;;22.51;42.78;100869.03;2087732;28;47520;-60
2022/06/29 04:09:50;;;;;;;;;3.00;3.00;;;;;22.49;42.98;100869.13;2086712;28;45793;-61
2022/06/29 04:10:50;;;;;;;;;4.75;4.00;;;;;22.48;43.28;100870.06;2081947;28;46336;-60
2022/06/29 04:11:53;;;;;;;;;2.50;2.50;;;;;22.48;43.49;100867.38;2082189;28;47867;-61
2022/06/29 04:12:54;;;;;;;;;4.80;4.40;;;;;22.47;43.43;100862.94;2082426;28;47338;-65
2022/06/29 04:13:54;;;;;;;;;5.00;4.75;;;;;22.48;43.36;100867.38;2080940;28;47358;-61
2022/06/29 04:14:55;;;;;;;;;5.25;4.75;;;;;22.48;43.31;100861.94;2082491;28;47945;-62
2022/06/29 04:15:56;;;;;;;;;5.00;4.00;;;;;22.50;43.29;100873.56;2086105;28;47222;-61
2022/06/29 04:16:57;;;;;;;;;4.75;4.25;;;;;22.52;43.26;100862.63;2085871;28;47212;-61
2022/06/29 04:17:58;;;;;;;;;4.80;4.00;;;;;22.56;43.48;100869.56;2078890;28;47524;-59
2022/06/29 04:18:58;;;;;;;;;5.00;3.75;;;;;22.57;43.19;100865.88;2086453;28;47971;-63
2022/06/29 04:19:58;;;;;;;;;4.00;4.00;;;;;22.58;43.42;100867.59;2083266;28;47588;-62
2022/06/29 04:21:08;;;;;;;;;3.50;3.50;;;;;22.57;43.04;100872.16;2080324;28;47383;-61
2022/06/29 04:22:08;;;;;;;;;3.20;3.20;;;;;22.56;43.52;100874.97;2083256;28;47789;-61
2022/06/29 04:23:08;;;;;;;;;5.00;4.25;;;;;22.55;43.52;100871.38;2084141;28;46282;-61
2022/06/29 04:24:09;;;;;;;;;4.00;4.00;;;;;22.53;43.26;100867.94;2081269;28;47044;-61
2022/06/29 04:25:10;;;;;;;;;3.60;3.60;;;;;22.54;43.02;100869.66;2084121;28;47481;-63
2022/06/29 04:26:10;;;;;;;;;4.00;4.00;;;;;22.54;43.31;100868.78;2079773;28;47276;-61
2022/06/29 04:27:11;;;;;;;;;6.75;4.25;;;;;22.53;43.28;100869.78;2084663;28;47206;-61
2022/06/29 04:28:11;;;;;;;;;3.25;3.25;;;;;22.53;43.16;100872.47;2079583;28;48027;-60
2022/06/29 04:29:12;;;;;;;;;3.25;3.25;;;;;22.51;43.29;100867.19;2084700;28;46985;-60
2022/06/29 04:30:13;;;;;;;;;3.75;3.75;;;;;22.49;43.15;100871.84;2088027;28;47546;-60
2022/06/29 04:31:13;;;;;;;;;3.00;2.00;;;;;22.47;43.38;100871.03;2085938;28;47427;-61
2022/06/29 04:32:13;;;;;;;;;5.50;4.00;;;;;22.46;43.54;100869.31;2084744;28;46357;-61
2022/06/29 04:33:14;;;;;;;;;3.25;3.25;;;;;22.45;43.35;100870.28;2080039;28;47829;-61
2022/06/29 04:34:14;;;;;;;;;4.00;4.00;;;;;22.42;43.42;100865.09;2080938;28;47347;-61
2022/06/29 04:35:14;;;;;;;;;4.00;4.00;;;;;22.42;43.62;100872.34;2080433;28;46824;-61
2022/06/29 04:36:15;;;;;;;;;4.75;4.75;;;;;22.41;44.00;100859.78;2080310;28;47091;-62
2022/06/29 04:37:15;;;;;;;;;2.25;2.25;;;;;22.41;43.66;100862.50;2079251;28;47392;-61
2022/06/29 04:38:16;;;;;;;;;5.00;4.50;;;;;22.41;44.00;100860.66;2080217;28;48021;-58
2022/06/29 04:39:16;;;;;;;;;4.00;4.00;;;;;22.41;44.00;100865.22;2086435;28;47578;-59
2022/06/29 04:40:17;;;;;;;;;4.50;4.50;;;;;22.40;43.81;100863.47;2085490;28;47552;-61
2022/06/29 04:41:19;;;;;;;;;7.00;7.00;;;;;22.41;43.71;100865.22;2080409;28;47463;-60
2022/06/29 04:42:19;;;;;;;;;5.20;5.20;;;;;22.41;43.46;100859.78;2087636;28;47946;-60
2022/06/29 04:43:20;;;;;;;;;4.25;4.00;;;;;22.41;43.86;100859.78;2088024;28;47844;-60
2022/06/29 04:44:20;;;;;;;;;5.00;4.00;;;;;22.39;43.93;100857.22;2080690;28;47473;-62
2022/06/29 04:46:40;;;;;;;;;5.40;5.40;;;;;22.38;44.22;100860.03;2083312;28;47423;-62
2022/06/29 04:47:40;;;;;;;;;4.25;4.25;;;;;22.37;43.79;100855.59;2080402;28;47623;-62